Aérodrome :
LOGIN :

S'inscrire | Disclaimer

   EN    FR    IT 

 










Légende :    VFR   VFR Marginal   IFR   IFR Intensif   IFR Très Intensif
Visi : 
Plafond : 
>= 8 km
>= 3000ft
5 à 8 km
1000 à 3000 ft
1500m à 5 km
500 à 1000 ft
800 à 1500m
200 à 500 ft
< 800m
< 200 ft
Symboles :   Orages  Brouillard  Fortes neiges  Fortes précipitations  Vent > 20 kt
SIGMETs :   Divers  Orages  Givrage  Turbulence  Onde Orograph.  Cendres Volcan.






- Altitude de l'aérodrome : 247 ft
- Code IATA : BLL


EKBI - Billund

DERNIER METAR :
  • 301520Z AUTO 25008KT 9999 OVC008/// 13/13 Q1011

METARs EXPIRÉS :
  • 301450Z AUTO 26010KT 9999 OVC008/// 13/13 Q1011
  • 301420Z AUTO 25009KT 9999 OVC007/// 13/13 Q1011
  • 301350Z AUTO 25008KT 9999 OVC004/// 13/13 Q1010
  • 301320Z AUTO 25008KT 3000 -RA BR OVC004/// 13/13 Q1010
  • 301250Z AUTO 25010KT 3900 -RA BR OVC004/// 13/13 Q1010

TAF AMD TAF EKBI
Valide du 30 à 14h jusqu'au 31 à 12h UTC


301401Z 3014/3112 24010KT 5000 -RADZ BKN004
BECMG 3014/3016 3000 BKN006
TEMPO 3016/3102 6000 NSW SCT006
BECMG 3102/3104 13006KT 0100 FG VV001
TEMPO 3105/3112 2000 BR BKN005



MET'MAP, la Météo Aéronautique d'un coup d'oeil ! - Copyright ORBIFLY Décembre 2007 - Disclaimer

ORBIFLY MET'MAP TEAM :

Programmation & Développement : Alexandra Zaïnal
Sur une idée originale de : Baudouin d'Aumeries
Assistance à la programmation : Marc-Olivier Méhu
Soutien technique & logistique : Manuel Goepfert

Contact : metmap@orbifly.com




SOURCES & CREDITS :

   NOAA